createdAt,value
2022-09-12T00:02:09.925Z,75.53
2022-09-12T00:04:36.335Z,76.16
2022-09-12T00:07:02.741Z,76.16
2022-09-12T00:09:29.161Z,76.37
2022-09-12T00:11:55.555Z,76.44
2022-09-12T00:14:21.949Z,76.91
2022-09-12T00:16:48.441Z,77.01
2022-09-12T00:19:15.268Z,77.32
2022-09-12T00:21:41.777Z,77.48
2022-09-12T00:24:09.661Z,77.85
2022-09-12T00:26:36.162Z,78.01
2022-09-12T00:29:02.568Z,78.12
2022-09-12T00:31:29.364Z,77.84
2022-09-12T00:33:57.418Z,77.66
2022-09-12T00:36:25.347Z,77.67
2022-09-12T00:38:52.060Z,77.92
2022-09-12T00:41:22.144Z,78.09
2022-09-12T00:43:55.948Z,78.10
2022-09-12T00:46:49.189Z,78.23
2022-09-12T00:49:24.480Z,78.22
2022-09-12T00:51:54.479Z,78.00
2022-09-12T00:54:23.044Z,78.21
2022-09-12T00:56:50.339Z,78.41
2022-09-12T00:59:19.574Z,78.42
2022-09-12T01:01:48.994Z,78.62
2022-09-12T01:04:16.056Z,79.11
2022-09-12T01:06:43.994Z,79.11
2022-09-12T01:09:13.442Z,79.12
2022-09-12T01:11:40.272Z,79.07
2022-09-12T01:14:07.494Z,79.27
2022-09-12T01:16:37.628Z,79.30
2022-09-12T01:19:04.006Z,79.32
2022-09-12T01:21:55.846Z,79.43
2022-09-12T01:24:40.738Z,79.58
2022-09-12T01:27:19.087Z,79.77
2022-09-12T01:29:56.744Z,79.99
2022-09-12T01:32:41.876Z,79.95
2022-09-12T01:35:22.853Z,80.00
2022-09-12T01:38:03.278Z,80.02
2022-09-12T01:40:35.106Z,80.04
2022-09-12T01:43:26.278Z,79.97
2022-09-12T01:46:03.164Z,80.22
2022-09-12T01:48:35.762Z,80.40
2022-09-12T01:51:13.918Z,80.33
2022-09-12T01:53:44.397Z,80.11
2022-09-12T01:56:26.545Z,80.66
2022-09-12T01:59:35.632Z,80.72
2022-09-12T02:02:08.156Z,80.44
2022-09-12T02:04:58.540Z,80.08
2022-09-12T02:07:37.381Z,80.18
2022-09-12T02:10:12.936Z,80.23
2022-09-12T02:12:44.494Z,79.63
2022-09-12T02:15:12.366Z,79.46
2022-09-12T02:17:43.359Z,79.39
2022-09-12T02:20:44.066Z,79.34
2022-09-12T02:23:09.498Z,79.25
2022-09-12T02:25:38.071Z,79.18
2022-09-12T02:28:07.100Z,78.67
2022-09-12T02:30:52.243Z,78.32
2022-09-12T02:33:26.664Z,78.66
2022-09-12T02:36:04.237Z,78.74
2022-09-12T02:38:44.500Z,78.74
2022-09-12T02:41:12.229Z,78.75
2022-09-12T02:43:38.747Z,78.93
2022-09-12T02:46:12.670Z,79.15
2022-09-12T02:48:41.614Z,78.41
2022-09-12T02:51:08.234Z,78.00
2022-09-12T02:53:35.772Z,78.09
2022-09-12T02:56:02.873Z,78.95
2022-09-12T02:58:31.412Z,78.85
2022-09-12T03:01:23.461Z,78.72
2022-09-12T03:04:11.752Z,78.20
2022-09-12T03:06:50.175Z,78.18
2022-09-12T03:09:20.816Z,78.44
2022-09-12T03:11:59.175Z,78.85
2022-09-12T03:15:02.712Z,78.42
2022-09-12T03:17:57.180Z,78.31
2022-09-12T03:20:44.500Z,77.99
2022-09-12T03:23:26.022Z,77.61
2022-09-12T03:26:04.188Z,77.60
2022-09-12T03:28:31.301Z,77.84
2022-09-12T03:30:58.082Z,78.39
2022-09-12T03:33:25.525Z,78.60
2022-09-12T03:35:53.106Z,78.55
2022-09-12T03:38:19.956Z,78.23
2022-09-12T03:40:47.792Z,78.23
2022-09-12T03:43:16.748Z,78.37
2022-09-12T03:45:43.194Z,78.84
2022-09-12T03:48:09.682Z,79.62
2022-09-12T03:50:36.079Z,79.13
2022-09-12T03:53:03.199Z,79.16
2022-09-12T03:55:29.752Z,78.96
2022-09-12T03:57:56.479Z,78.80
2022-09-12T04:00:22.918Z,78.51
2022-09-12T04:02:53.592Z,78.29
2022-09-12T04:05:19.988Z,78.31
2022-09-12T04:07:46.362Z,77.98
2022-09-12T04:10:12.760Z,77.63
2022-09-12T04:12:39.493Z,77.16
2022-09-12T04:15:07.458Z,77.59
2022-09-12T04:17:34.706Z,78.38
2022-09-12T04:20:01.179Z,78.82
2022-09-12T04:22:28.153Z,78.87
2022-09-12T04:24:54.555Z,78.81
2022-09-12T04:27:21.051Z,78.21
2022-09-12T04:29:47.461Z,78.13
2022-09-12T04:32:15.058Z,78.23
2022-09-12T04:34:41.743Z,78.31
2022-09-12T04:37:08.170Z,78.55
2022-09-12T04:39:34.578Z,78.67
2022-09-12T04:42:00.974Z,78.48
2022-09-12T04:44:27.383Z,78.52
2022-09-12T04:46:53.766Z,78.05
2022-09-12T04:49:20.159Z,78.01
2022-09-12T04:51:46.851Z,77.99
2022-09-12T04:54:15.874Z,77.82
2022-09-12T04:56:44.938Z,77.92
2022-09-12T04:59:12.872Z,77.63
2022-09-12T05:01:39.406Z,77.50
2022-09-12T05:04:05.878Z,77.57
2022-09-12T05:06:34.557Z,77.71
2022-09-12T05:09:02.101Z,78.03
2022-09-12T05:12:00.114Z,77.76
2022-09-12T05:14:20.499Z,78.10
2022-09-12T05:16:49.426Z,78.51
2022-09-12T05:19:16.260Z,78.89
2022-09-12T05:21:42.729Z,79.26
2022-09-12T05:24:10.630Z,79.47
2022-09-12T05:26:37.050Z,79.44
2022-09-12T05:29:04.413Z,79.44
2022-09-12T05:31:30.810Z,79.39
2022-09-12T05:33:57.587Z,79.12
2022-09-12T05:36:27.953Z,79.02
2022-09-12T05:38:54.402Z,79.61
2022-09-12T05:41:26.433Z,80.16
2022-09-12T05:43:54.424Z,80.62
2022-09-12T05:46:22.300Z,80.55
2022-09-12T05:48:55.128Z,80.82
2022-09-12T05:51:25.426Z,80.91
2022-09-12T05:54:00.254Z,81.12
2022-09-12T05:56:28.541Z,81.20
2022-09-12T05:59:00.960Z,81.20
2022-09-12T06:01:28.395Z,81.38
2022-09-12T06:03:57.814Z,81.62
2022-09-12T06:06:25.138Z,82.10
2022-09-12T06:08:53.882Z,82.36
2022-09-12T06:11:23.006Z,82.48
2022-09-12T06:13:50.989Z,83.02
2022-09-12T06:16:19.539Z,83.27
2022-09-12T06:18:53.845Z,83.73
2022-09-12T06:21:21.296Z,83.88
2022-09-12T06:23:48.086Z,84.09
2022-09-12T06:26:16.764Z,84.14
2022-09-12T06:28:44.964Z,84.13
2022-09-12T06:31:17.314Z,84.51
2022-09-12T06:33:45.763Z,84.54
2022-09-12T06:36:19.127Z,84.75
2022-09-12T06:38:46.376Z,84.82
2022-09-12T06:41:13.622Z,85.20
2022-09-12T06:43:41.154Z,85.42
2022-09-12T06:46:08.412Z,85.48
2022-09-12T06:48:39.602Z,85.72
2022-09-12T06:51:13.410Z,85.66
2022-09-12T06:53:39.938Z,85.64
2022-09-12T06:56:09.678Z,85.27
2022-09-12T06:58:36.845Z,84.95
2022-09-12T07:01:09.449Z,84.90
2022-09-12T07:03:36.668Z,84.86
2022-09-12T07:06:04.367Z,84.66
2022-09-12T07:08:31.730Z,84.69
2022-09-12T07:11:10.249Z,84.39
2022-09-12T07:13:36.639Z,83.79
2022-09-12T07:16:04.195Z,83.52
2022-09-12T07:18:31.442Z,83.30
2022-09-12T07:21:02.791Z,83.06
2022-09-12T07:23:29.865Z,82.67
2022-09-12T07:25:57.660Z,81.84
2022-09-12T07:28:25.165Z,81.30
2022-09-12T07:30:53.857Z,80.77
2022-09-12T07:33:21.513Z,79.90
2022-09-12T07:35:47.963Z,79.53
2022-09-12T07:38:14.353Z,78.89
2022-09-12T07:40:40.838Z,78.63
2022-09-12T07:43:07.280Z,78.55
2022-09-12T07:45:33.849Z,78.22
2022-09-12T07:48:00.360Z,78.21
2022-09-12T07:50:26.863Z,78.52
2022-09-12T07:52:56.489Z,78.31
2022-09-12T07:55:23.191Z,78.07
2022-09-12T07:57:50.876Z,77.55
2022-09-12T08:00:18.210Z,77.89
2022-09-12T08:02:44.817Z,76.96
2022-09-12T08:05:11.488Z,76.45
2022-09-12T08:07:38.227Z,76.24
2022-09-12T08:10:06.481Z,75.62
2022-09-12T08:12:34.543Z,75.28
2022-09-12T08:15:00.966Z,75.47
2022-09-12T08:17:27.371Z,74.63
2022-09-12T08:19:53.748Z,74.52
2022-09-12T08:22:21.899Z,74.41
2022-09-12T08:24:49.567Z,74.47
2022-09-12T08:27:16.335Z,73.88
2022-09-12T08:29:42.701Z,73.55
2022-09-12T08:32:09.102Z,73.10
2022-09-12T08:34:35.761Z,73.03
2022-09-12T08:37:02.175Z,73.00
2022-09-12T08:39:28.606Z,72.97
2022-09-12T08:42:01.381Z,72.53
2022-09-12T08:44:51.733Z,72.10
2022-09-12T08:47:21.246Z,72.44
2022-09-12T08:49:58.859Z,72.56
2022-09-12T08:52:46.502Z,72.25
2022-09-12T08:55:34.756Z,71.81
2022-09-12T08:58:10.033Z,71.10
2022-09-12T09:00:59.525Z,70.15
2022-09-12T09:03:49.192Z,70.00
2022-09-12T09:06:33.682Z,69.90
2022-09-12T09:09:33.478Z,69.17
2022-09-12T09:12:07.700Z,69.99
2022-09-12T09:14:53.165Z,70.45
2022-09-12T09:17:35.031Z,70.03
2022-09-12T09:20:13.394Z,70.14
2022-09-12T09:22:48.434Z,69.61
2022-09-12T09:25:24.430Z,69.68
2022-09-12T09:28:02.188Z,69.25
2022-09-12T09:30:28.809Z,68.20
2022-09-12T09:32:57.882Z,68.14
2022-09-12T09:35:46.307Z,67.68
2022-09-12T09:38:43.142Z,66.84
2022-09-12T09:41:56.696Z,66.69
2022-09-12T09:44:23.469Z,65.31
2022-09-12T09:46:54.339Z,65.53
2022-09-12T09:49:21.284Z,65.42
2022-09-12T09:51:48.299Z,65.71
2022-09-12T09:54:19.849Z,64.80
2022-09-12T09:56:46.262Z,64.67
2022-09-12T09:59:29.962Z,63.73
2022-09-12T10:02:24.661Z,63.32
2022-09-12T10:04:57.527Z,62.94
2022-09-12T10:07:24.686Z,62.50
2022-09-12T10:10:17.250Z,62.12
2022-09-12T10:12:44.116Z,61.55
2022-09-12T10:15:19.614Z,61.48
2022-09-12T10:17:48.086Z,60.48
2022-09-12T10:20:44.401Z,59.46
2022-09-12T10:23:37.438Z,58.79
2022-09-12T10:26:12.574Z,59.06
2022-09-12T10:28:41.327Z,58.76
2022-09-12T10:31:09.734Z,58.39
2022-09-12T10:33:43.603Z,57.81
2022-09-12T10:36:10.054Z,56.54
2022-09-12T10:38:36.779Z,55.44
2022-09-12T10:41:06.498Z,56.23
2022-09-12T10:43:33.075Z,55.04
2022-09-12T10:46:20.452Z,54.62
2022-09-12T10:48:51.499Z,54.23
2022-09-12T10:51:24.018Z,55.00
2022-09-12T10:54:10.274Z,54.08
2022-09-12T10:56:51.384Z,54.10
2022-09-12T10:59:25.793Z,52.69
2022-09-12T11:02:12.522Z,50.52
2022-09-12T11:05:03.908Z,49.79
2022-09-12T11:08:14.964Z,49.38
2022-09-12T11:10:56.957Z,49.33
2022-09-12T11:13:28.262Z,49.02
2022-09-12T11:16:10.691Z,49.68
2022-09-12T11:19:04.011Z,49.64
2022-09-12T11:22:16.148Z,50.23
2022-09-12T11:25:12.861Z,50.41
2022-09-12T11:28:03.693Z,50.13
2022-09-12T11:30:49.538Z,49.99
2022-09-12T11:33:30.406Z,50.09
2022-09-12T11:35:57.780Z,49.92
2022-09-12T11:38:43.110Z,48.96
2022-09-12T11:41:26.209Z,48.53
2022-09-12T11:44:19.060Z,48.75
2022-09-12T11:46:48.741Z,49.02
2022-09-12T11:49:31.376Z,49.78
2022-09-12T11:52:20.982Z,49.56
2022-09-12T11:55:04.505Z,48.81
2022-09-12T11:57:35.919Z,48.97
2022-09-12T12:00:05.924Z,48.32
2022-09-12T12:02:40.392Z,48.04
2022-09-12T12:05:29.840Z,47.48
2022-09-12T12:07:58.706Z,47.70
2022-09-12T12:10:36.198Z,47.13
2022-09-12T12:13:13.366Z,47.82
2022-09-12T12:15:45.977Z,47.18
2022-09-12T12:18:19.130Z,47.23
2022-09-12T12:20:45.834Z,47.14
2022-09-12T12:23:31.293Z,46.97
2022-09-12T12:25:59.832Z,47.15
2022-09-12T12:28:52.425Z,46.95
2022-09-12T12:31:18.962Z,46.33
2022-09-12T12:33:45.296Z,46.08
2022-09-12T12:36:30.793Z,46.51
2022-09-12T12:38:57.314Z,45.46
2022-09-12T12:41:24.001Z,44.73
2022-09-12T12:43:52.212Z,44.22
2022-09-12T12:46:20.422Z,44.11
2022-09-12T12:48:53.732Z,44.30
2022-09-12T12:51:23.477Z,45.04
2022-09-12T12:53:50.770Z,44.43
2022-09-12T12:56:34.885Z,44.22
2022-09-12T12:59:03.872Z,44.33
2022-09-12T13:01:30.691Z,44.49
2022-09-12T13:04:01.502Z,44.54
2022-09-12T13:07:08.358Z,44.73
2022-09-12T13:09:45.362Z,43.71
2022-09-12T13:12:19.635Z,43.99
2022-09-12T13:14:51.398Z,43.77
2022-09-12T13:17:28.245Z,42.70
2022-09-12T13:20:27.896Z,43.04
2022-09-12T13:22:55.343Z,42.44
2022-09-12T13:25:23.882Z,41.83
2022-09-12T13:28:07.478Z,41.20
2022-09-12T13:30:36.979Z,40.93
2022-09-12T13:33:16.470Z,41.05
2022-09-12T13:35:58.042Z,41.60
2022-09-12T13:38:42.894Z,42.07
2022-09-12T13:41:21.284Z,41.29
2022-09-12T13:43:48.114Z,41.55
2022-09-12T13:46:17.836Z,42.65
2022-09-12T13:48:44.422Z,41.15
2022-09-12T13:51:23.029Z,41.41
2022-09-12T13:53:50.628Z,40.54
2022-09-12T13:56:17.872Z,40.15
2022-09-12T13:58:58.770Z,40.58
2022-09-12T14:01:37.988Z,40.95
2022-09-12T14:04:38.418Z,41.10
2022-09-12T14:07:19.537Z,40.59
2022-09-12T14:09:53.867Z,40.80
2022-09-12T14:12:36.665Z,40.60
2022-09-12T14:15:03.846Z,40.48
2022-09-12T14:17:36.172Z,40.35
2022-09-12T14:20:07.045Z,40.52
2022-09-12T14:22:34.697Z,40.02
2022-09-12T14:25:01.927Z,40.17
2022-09-12T14:27:50.759Z,40.66
2022-09-12T14:30:26.446Z,40.23
2022-09-12T14:33:05.921Z,39.92
2022-09-12T14:35:33.148Z,39.69
2022-09-12T14:38:26.715Z,39.38
2022-09-12T14:41:01.586Z,38.21
2022-09-12T14:43:30.624Z,38.49
2022-09-12T14:46:02.871Z,37.63
2022-09-12T14:48:32.304Z,37.26
2022-09-12T14:50:59.054Z,37.20
2022-09-12T14:53:34.817Z,36.98
2022-09-12T14:56:12.486Z,36.91
2022-09-12T14:58:40.429Z,37.08
2022-09-12T15:01:07.129Z,36.72
2022-09-12T15:03:49.403Z,37.40
2022-09-12T15:06:32.978Z,37.44
2022-09-12T15:09:00.788Z,37.35
2022-09-12T15:11:27.443Z,39.07
2022-09-12T15:13:53.846Z,38.47
2022-09-12T15:16:20.498Z,39.87
2022-09-12T15:18:46.936Z,39.03
2022-09-12T15:21:17.104Z,37.83
2022-09-12T15:23:50.179Z,37.49
2022-09-12T15:26:22.475Z,37.13
2022-09-12T15:28:49.519Z,37.33
2022-09-12T15:31:22.780Z,37.32
2022-09-12T15:33:49.308Z,36.86
2022-09-12T15:36:17.582Z,39.79
2022-09-12T15:38:44.992Z,37.80
2022-09-12T15:41:15.008Z,37.20
2022-09-12T15:43:41.444Z,36.80
2022-09-12T15:46:11.625Z,36.93
2022-09-12T15:48:38.351Z,37.27
2022-09-12T15:51:05.796Z,37.04
2022-09-12T15:53:32.263Z,36.86
2022-09-12T15:55:58.725Z,36.75
2022-09-12T15:58:25.227Z,36.69
2022-09-12T16:00:51.628Z,36.45
2022-09-12T16:03:22.829Z,36.02
2022-09-12T16:05:50.001Z,36.07
2022-09-12T16:08:16.408Z,36.22
2022-09-12T16:10:43.475Z,36.02
2022-09-12T16:13:09.880Z,36.31
2022-09-12T16:15:37.635Z,36.16
2022-09-12T16:18:04.130Z,35.62
2022-09-12T16:20:30.528Z,35.88
2022-09-12T16:22:56.923Z,35.80
2022-09-12T16:25:23.338Z,36.45
2022-09-12T16:27:50.000Z,37.85
2022-09-12T16:30:16.476Z,38.03
2022-09-12T16:32:42.897Z,38.34
2022-09-12T16:35:09.736Z,38.88
2022-09-12T16:37:36.469Z,38.80
2022-09-12T16:40:04.089Z,39.29
2022-09-12T16:42:30.737Z,39.26
2022-09-12T16:44:57.133Z,39.44
2022-09-12T16:47:23.527Z,39.35
2022-09-12T16:49:51.164Z,39.60
2022-09-12T16:52:17.621Z,39.64
2022-09-12T16:54:46.804Z,39.46
2022-09-12T16:57:13.199Z,39.30
2022-09-12T16:59:39.657Z,39.20
2022-09-12T17:02:06.356Z,39.73
2022-09-12T17:04:32.886Z,39.51
2022-09-12T17:06:59.569Z,40.10
2022-09-12T17:09:27.377Z,40.15
2022-09-12T17:11:53.797Z,40.85
2022-09-12T17:14:20.209Z,40.63
2022-09-12T17:16:51.504Z,41.51
2022-09-12T17:19:26.443Z,41.51
2022-09-12T17:21:53.408Z,41.80
2022-09-12T17:24:20.136Z,41.93
2022-09-12T17:26:46.561Z,42.13
2022-09-12T17:29:13.924Z,42.69
2022-09-12T17:31:41.240Z,43.45
2022-09-12T17:34:07.994Z,43.31
2022-09-12T17:36:34.489Z,43.68
2022-09-12T17:39:03.594Z,43.90
2022-09-12T17:41:31.850Z,43.60
2022-09-12T17:43:59.662Z,43.80
2022-09-12T17:46:32.835Z,44.30
2022-09-12T17:49:00.905Z,44.76
2022-09-12T17:51:30.575Z,44.43
2022-09-12T17:54:05.471Z,44.69
2022-09-12T17:56:33.231Z,44.87
2022-09-12T17:58:59.954Z,44.95
2022-09-12T18:01:45.509Z,45.25
2022-09-12T18:04:12.163Z,45.42
2022-09-12T18:06:39.989Z,46.09
2022-09-12T18:09:08.477Z,46.41
2022-09-12T18:11:35.435Z,47.06
2022-09-12T18:14:02.597Z,46.94
2022-09-12T18:16:29.002Z,47.39
2022-09-12T18:18:55.547Z,48.04
2022-09-12T18:21:22.011Z,48.05
2022-09-12T18:23:48.421Z,48.26
2022-09-12T18:26:14.979Z,48.58
2022-09-12T18:28:42.756Z,48.98
2022-09-12T18:31:15.272Z,49.36
2022-09-12T18:33:42.134Z,49.79
2022-09-12T18:36:10.624Z,50.19
2022-09-12T18:38:37.630Z,50.98
2022-09-12T18:41:18.308Z,50.77
2022-09-12T18:43:45.101Z,51.16
2022-09-12T18:46:13.423Z,51.50
2022-09-12T18:48:40.031Z,51.64
2022-09-12T18:51:09.839Z,51.87
2022-09-12T18:53:36.981Z,52.23
2022-09-12T18:56:08.627Z,52.54
2022-09-12T18:58:40.497Z,52.78
2022-09-12T19:01:16.006Z,52.86
2022-09-12T19:03:42.770Z,53.41
2022-09-12T19:06:17.654Z,53.85
2022-09-12T19:08:44.565Z,54.00
2022-09-12T19:11:11.311Z,54.09
2022-09-12T19:13:39.714Z,54.03
2022-09-12T19:16:09.292Z,54.14
2022-09-12T19:18:37.004Z,54.74
2022-09-12T19:21:13.842Z,54.68
2022-09-12T19:23:40.349Z,54.83
2022-09-12T19:26:08.563Z,55.59
2022-09-12T19:28:35.374Z,55.57
2022-09-12T19:31:09.991Z,55.65
2022-09-12T19:33:36.862Z,55.94
2022-09-12T19:36:27.290Z,56.20
2022-09-12T19:38:55.451Z,56.48
2022-09-12T19:41:21.916Z,56.53
2022-09-12T19:43:48.333Z,56.87
2022-09-12T19:46:17.250Z,57.00
2022-09-12T19:48:44.853Z,57.29
2022-09-12T19:51:11.849Z,57.39
2022-09-12T19:53:38.347Z,57.91
2022-09-12T19:56:05.798Z,57.78
2022-09-12T19:58:35.514Z,57.97
2022-09-12T20:01:14.352Z,57.92
2022-09-12T20:03:41.187Z,58.40
2022-09-12T20:06:09.751Z,58.61
2022-09-12T20:08:45.639Z,58.88
2022-09-12T20:11:13.898Z,58.65
2022-09-12T20:13:41.139Z,58.94
2022-09-12T20:16:21.698Z,59.29
2022-09-12T20:18:55.976Z,59.31
2022-09-12T20:21:25.256Z,59.62
2022-09-12T20:23:51.928Z,59.86
2022-09-12T20:26:20.175Z,59.77
2022-09-12T20:28:46.677Z,59.94
2022-09-12T20:31:15.695Z,59.96
2022-09-12T20:33:42.836Z,60.27
2022-09-12T20:36:16.073Z,60.71
2022-09-12T20:38:47.485Z,60.69
2022-09-12T20:41:13.936Z,60.81
2022-09-12T20:43:40.841Z,61.05
2022-09-12T20:46:09.783Z,61.16
2022-09-12T20:48:37.005Z,61.42
2022-09-12T20:51:03.903Z,61.36
2022-09-12T20:53:34.708Z,61.78
2022-09-12T20:56:01.920Z,61.71
2022-09-12T20:58:28.320Z,61.92
2022-09-12T21:00:54.749Z,61.97
2022-09-12T21:03:21.160Z,62.42
2022-09-12T21:05:47.607Z,62.35
2022-09-12T21:08:14.318Z,62.39
2022-09-12T21:10:42.045Z,62.46
2022-09-12T21:13:10.253Z,62.87
2022-09-12T21:15:38.510Z,62.78
2022-09-12T21:18:05.348Z,62.79
2022-09-12T21:20:32.434Z,63.20
2022-09-12T21:22:59.099Z,63.15
2022-09-12T21:25:25.559Z,63.55
2022-09-12T21:27:51.974Z,63.65
2022-09-12T21:30:18.371Z,63.59
2022-09-12T21:32:44.826Z,63.61
2022-09-12T21:35:11.279Z,63.65
2022-09-12T21:37:37.732Z,63.69
2022-09-12T21:40:04.448Z,63.85
2022-09-12T21:42:31.711Z,63.96
2022-09-12T21:44:58.116Z,64.05
2022-09-12T21:47:24.645Z,64.10
2022-09-12T21:49:51.052Z,64.05
2022-09-12T21:52:17.439Z,64.10
2022-09-12T21:54:43.850Z,64.21
2022-09-12T21:57:10.228Z,64.23
2022-09-12T21:59:36.666Z,64.58
2022-09-12T22:02:03.135Z,64.71
2022-09-12T22:04:30.853Z,64.62
2022-09-12T22:06:57.494Z,64.87
2022-09-12T22:09:23.883Z,64.89
2022-09-12T22:11:50.298Z,64.96
2022-09-12T22:14:17.469Z,65.23
2022-09-12T22:16:43.988Z,65.17
2022-09-12T22:19:10.369Z,65.07
2022-09-12T22:21:56.719Z,65.39
2022-09-12T22:24:29.488Z,65.40
2022-09-12T22:26:57.366Z,65.50
2022-09-12T22:29:23.756Z,65.74
2022-09-12T22:31:50.345Z,65.77
2022-09-12T22:34:16.874Z,65.86
2022-09-12T22:36:43.820Z,66.08
2022-09-12T22:39:10.216Z,66.23
2022-09-12T22:41:36.602Z,66.22
2022-09-12T22:44:03.093Z,66.41
2022-09-12T22:46:30.442Z,66.68
2022-09-12T22:48:56.907Z,66.73
2022-09-12T22:51:23.542Z,66.84
2022-09-12T22:53:49.974Z,66.94
2022-09-12T22:56:16.364Z,67.03
2022-09-12T22:58:43.489Z,67.37
2022-09-12T23:01:10.758Z,67.17
2022-09-12T23:03:37.451Z,67.43
2022-09-12T23:06:04.607Z,67.55
2022-09-12T23:08:31.093Z,67.45
2022-09-12T23:11:09.393Z,67.47
2022-09-12T23:13:37.001Z,67.53
2022-09-12T23:16:05.950Z,67.51
2022-09-12T23:18:35.410Z,67.65
2022-09-12T23:21:04.592Z,67.77
2022-09-12T23:23:31.301Z,67.68
2022-09-12T23:26:14.009Z,67.89
2022-09-12T23:28:41.645Z,67.96
2022-09-12T23:31:09.656Z,68.10
2022-09-12T23:33:36.245Z,68.25
2022-09-12T23:36:07.942Z,68.29
2022-09-12T23:38:35.507Z,68.21
2022-09-12T23:41:03.300Z,68.22
2022-09-12T23:43:30.316Z,68.48
2022-09-12T23:45:57.740Z,68.49
2022-09-12T23:48:24.241Z,68.50
2022-09-12T23:50:50.673Z,68.54
2022-09-12T23:53:17.622Z,68.40
2022-09-12T23:55:44.851Z,68.56
2022-09-12T23:58:11.853Z,68.65
